sensor_id;sensor_type;location;lat;lon;timestamp;P1;durP1;ratioP1;P2;durP2;ratioP2
21337;SDS011;72379;50.880;4.350;2024-03-25T00:01:29;17.97;;;8.33;;
21337;SDS011;72379;50.880;4.350;2024-03-25T00:03:54;16.40;;;8.10;;
21337;SDS011;72379;50.880;4.350;2024-03-25T00:06:20;17.67;;;8.20;;
21337;SDS011;72379;50.880;4.350;2024-03-25T00:08:46;16.43;;;8.93;;
21337;SDS011;72379;50.880;4.350;2024-03-25T00:11:12;15.70;;;8.37;;
21337;SDS011;72379;50.880;4.350;2024-03-25T00:13:38;15.57;;;8.90;;
21337;SDS011;72379;50.880;4.350;2024-03-25T00:16:04;15.83;;;8.43;;
21337;SDS011;72379;50.880;4.350;2024-03-25T00:18:31;15.60;;;8.13;;
21337;SDS011;72379;50.880;4.350;2024-03-25T00:20:57;16.03;;;8.33;;
21337;SDS011;72379;50.880;4.350;2024-03-25T00:23:23;17.97;;;8.67;;
21337;SDS011;72379;50.880;4.350;2024-03-25T00:25:49;16.67;;;8.17;;
21337;SDS011;72379;50.880;4.350;2024-03-25T00:28:15;16.93;;;9.00;;
21337;SDS011;72379;50.880;4.350;2024-03-25T00:30:41;15.60;;;8.13;;
21337;SDS011;72379;50.880;4.350;2024-03-25T00:33:06;15.50;;;7.80;;
21337;SDS011;72379;50.880;4.350;2024-03-25T00:35:33;15.70;;;8.57;;
21337;SDS011;72379;50.880;4.350;2024-03-25T00:37:59;21.03;;;8.00;;
21337;SDS011;72379;50.880;4.350;2024-03-25T00:40:25;18.83;;;9.13;;
21337;SDS011;72379;50.880;4.350;2024-03-25T00:42:51;22.23;;;9.33;;
21337;SDS011;72379;50.880;4.350;2024-03-25T00:45:17;18.47;;;8.97;;
21337;SDS011;72379;50.880;4.350;2024-03-25T00:47:43;16.80;;;8.13;;
21337;SDS011;72379;50.880;4.350;2024-03-25T00:50:09;17.37;;;8.27;;
21337;SDS011;72379;50.880;4.350;2024-03-25T00:52:35;17.70;;;9.10;;
21337;SDS011;72379;50.880;4.350;2024-03-25T00:55:01;15.33;;;8.30;;
21337;SDS011;72379;50.880;4.350;2024-03-25T00:57:27;18.67;;;9.17;;
21337;SDS011;72379;50.880;4.350;2024-03-25T00:59:54;18.57;;;8.13;;
21337;SDS011;72379;50.880;4.350;2024-03-25T01:02:20;17.20;;;8.60;;
21337;SDS011;72379;50.880;4.350;2024-03-25T01:04:46;16.43;;;8.37;;
21337;SDS011;72379;50.880;4.350;2024-03-25T01:07:12;17.70;;;8.03;;
21337;SDS011;72379;50.880;4.350;2024-03-25T01:09:38;15.17;;;8.40;;
21337;SDS011;72379;50.880;4.350;2024-03-25T01:12:05;15.03;;;8.10;;
21337;SDS011;72379;50.880;4.350;2024-03-25T01:14:30;17.87;;;8.43;;
21337;SDS011;72379;50.880;4.350;2024-03-25T01:16:56;17.20;;;9.23;;
21337;SDS011;72379;50.880;4.350;2024-03-25T01:19:22;17.47;;;9.07;;
21337;SDS011;72379;50.880;4.350;2024-03-25T01:21:48;17.10;;;8.73;;
21337;SDS011;72379;50.880;4.350;2024-03-25T01:24:15;15.43;;;8.17;;
21337;SDS011;72379;50.880;4.350;2024-03-25T01:26:40;17.37;;;7.63;;
21337;SDS011;72379;50.880;4.350;2024-03-25T01:29:06;14.83;;;7.70;;
21337;SDS011;72379;50.880;4.350;2024-03-25T01:31:33;16.70;;;7.90;;
21337;SDS011;72379;50.880;4.350;2024-03-25T01:33:59;15.37;;;8.57;;
21337;SDS011;72379;50.880;4.350;2024-03-25T01:36:25;15.23;;;7.73;;
21337;SDS011;72379;50.880;4.350;2024-03-25T01:38:52;18.20;;;8.67;;
21337;SDS011;72379;50.880;4.350;2024-03-25T01:41:20;15.30;;;8.77;;
21337;SDS011;72379;50.880;4.350;2024-03-25T01:43:50;19.90;;;8.63;;
21337;SDS011;72379;50.880;4.350;2024-03-25T01:46:19;19.33;;;8.43;;
21337;SDS011;72379;50.880;4.350;2024-03-25T01:48:46;17.43;;;8.20;;
21337;SDS011;72379;50.880;4.350;2024-03-25T01:51:14;18.83;;;8.00;;
21337;SDS011;72379;50.880;4.350;2024-03-25T01:53:42;18.07;;;8.67;;
21337;SDS011;72379;50.880;4.350;2024-03-25T01:56:09;18.07;;;8.40;;
21337;SDS011;72379;50.880;4.350;2024-03-25T01:58:37;19.87;;;8.33;;
21337;SDS011;72379;50.880;4.350;2024-03-25T02:01:03;15.83;;;7.73;;
21337;SDS011;72379;50.880;4.350;2024-03-25T02:03:30;18.50;;;8.40;;
21337;SDS011;72379;50.880;4.350;2024-03-25T02:05:58;19.33;;;8.57;;
21337;SDS011;72379;50.880;4.350;2024-03-25T02:08:27;17.17;;;7.90;;
21337;SDS011;72379;50.880;4.350;2024-03-25T02:10:54;14.63;;;7.93;;
21337;SDS011;72379;50.880;4.350;2024-03-25T02:13:20;15.60;;;8.53;;
21337;SDS011;72379;50.880;4.350;2024-03-25T02:15:46;16.73;;;8.07;;
21337;SDS011;72379;50.880;4.350;2024-03-25T02:18:16;20.23;;;8.80;;
21337;SDS011;72379;50.880;4.350;2024-03-25T02:20:44;18.43;;;8.17;;
21337;SDS011;72379;50.880;4.350;2024-03-25T02:23:11;15.67;;;7.87;;
21337;SDS011;72379;50.880;4.350;2024-03-25T02:25:38;16.23;;;8.47;;
21337;SDS011;72379;50.880;4.350;2024-03-25T02:28:06;19.00;;;8.37;;
21337;SDS011;72379;50.880;4.350;2024-03-25T02:30:32;16.70;;;7.93;;
21337;SDS011;72379;50.880;4.350;2024-03-25T02:32:58;13.07;;;7.73;;
21337;SDS011;72379;50.880;4.350;2024-03-25T02:35:24;16.23;;;7.80;;
21337;SDS011;72379;50.880;4.350;2024-03-25T02:37:51;14.73;;;7.67;;
21337;SDS011;72379;50.880;4.350;2024-03-25T02:40:18;16.17;;;8.40;;
21337;SDS011;72379;50.880;4.350;2024-03-25T02:42:45;19.83;;;8.50;;
21337;SDS011;72379;50.880;4.350;2024-03-25T02:45:11;18.20;;;8.63;;
21337;SDS011;72379;50.880;4.350;2024-03-25T02:47:37;18.43;;;7.73;;
21337;SDS011;72379;50.880;4.350;2024-03-25T02:50:03;19.03;;;8.00;;
21337;SDS011;72379;50.880;4.350;2024-03-25T02:52:30;18.93;;;7.30;;
21337;SDS011;72379;50.880;4.350;2024-03-25T02:54:55;16.30;;;8.03;;
21337;SDS011;72379;50.880;4.350;2024-03-25T02:57:21;19.90;;;7.77;;
21337;SDS011;72379;50.880;4.350;2024-03-25T02:59:48;17.90;;;7.87;;
21337;SDS011;72379;50.880;4.350;2024-03-25T03:02:13;22.63;;;7.30;;
21337;SDS011;72379;50.880;4.350;2024-03-25T03:04:39;18.47;;;7.07;;
21337;SDS011;72379;50.880;4.350;2024-03-25T03:07:05;25.60;;;7.87;;
21337;SDS011;72379;50.880;4.350;2024-03-25T03:09:31;18.80;;;7.53;;
21337;SDS011;72379;50.880;4.350;2024-03-25T03:11:57;25.43;;;7.97;;
21337;SDS011;72379;50.880;4.350;2024-03-25T03:14:23;16.00;;;7.47;;
21337;SDS011;72379;50.880;4.350;2024-03-25T03:16:49;21.23;;;8.63;;
21337;SDS011;72379;50.880;4.350;2024-03-25T03:19:19;28.93;;;7.57;;
21337;SDS011;72379;50.880;4.350;2024-03-25T03:21:46;21.47;;;7.73;;
21337;SDS011;72379;50.880;4.350;2024-03-25T03:24:13;32.63;;;8.63;;
21337;SDS011;72379;50.880;4.350;2024-03-25T03:26:38;27.23;;;8.57;;
21337;SDS011;72379;50.880;4.350;2024-03-25T03:29:04;25.83;;;8.50;;
21337;SDS011;72379;50.880;4.350;2024-03-25T03:31:30;27.40;;;8.43;;
21337;SDS011;72379;50.880;4.350;2024-03-25T03:33:56;21.50;;;9.03;;
21337;SDS011;72379;50.880;4.350;2024-03-25T03:36:23;24.80;;;8.53;;
21337;SDS011;72379;50.880;4.350;2024-03-25T03:38:52;26.40;;;9.17;;
21337;SDS011;72379;50.880;4.350;2024-03-25T03:41:18;24.47;;;8.87;;
21337;SDS011;72379;50.880;4.350;2024-03-25T03:43:43;25.13;;;8.70;;
21337;SDS011;72379;50.880;4.350;2024-03-25T03:46:09;28.23;;;9.77;;
21337;SDS011;72379;50.880;4.350;2024-03-25T03:48:35;18.93;;;8.57;;
21337;SDS011;72379;50.880;4.350;2024-03-25T03:51:03;27.97;;;8.83;;
21337;SDS011;72379;50.880;4.350;2024-03-25T03:53:32;25.60;;;9.90;;
21337;SDS011;72379;50.880;4.350;2024-03-25T03:55:59;25.63;;;9.57;;
21337;SDS011;72379;50.880;4.350;2024-03-25T03:58:35;29.80;;;9.47;;
21337;SDS011;72379;50.880;4.350;2024-03-25T04:01:01;25.33;;;9.20;;
21337;SDS011;72379;50.880;4.350;2024-03-25T04:03:29;25.43;;;9.73;;
21337;SDS011;72379;50.880;4.350;2024-03-25T04:05:55;27.60;;;9.87;;
21337;SDS011;72379;50.880;4.350;2024-03-25T04:08:21;27.23;;;9.70;;
21337;SDS011;72379;50.880;4.350;2024-03-25T04:10:47;26.47;;;9.33;;
21337;SDS011;72379;50.880;4.350;2024-03-25T04:13:13;25.77;;;9.50;;
21337;SDS011;72379;50.880;4.350;2024-03-25T04:15:39;33.47;;;10.70;;
21337;SDS011;72379;50.880;4.350;2024-03-25T04:21:01;27.63;;;10.93;;
21337;SDS011;72379;50.880;4.350;2024-03-25T04:23:27;31.93;;;10.20;;
21337;SDS011;72379;50.880;4.350;2024-03-25T04:25:53;30.13;;;9.83;;
21337;SDS011;72379;50.880;4.350;2024-03-25T04:28:19;28.17;;;10.53;;
21337;SDS011;72379;50.880;4.350;2024-03-25T04:30:52;35.63;;;10.57;;
21337;SDS011;72379;50.880;4.350;2024-03-25T04:33:18;31.63;;;11.67;;
21337;SDS011;72379;50.880;4.350;2024-03-25T04:35:45;31.93;;;12.20;;
21337;SDS011;72379;50.880;4.350;2024-03-25T04:38:11;35.00;;;11.27;;
21337;SDS011;72379;50.880;4.350;2024-03-25T04:40:38;28.47;;;11.80;;
21337;SDS011;72379;50.880;4.350;2024-03-25T04:43:04;35.57;;;11.20;;
21337;SDS011;72379;50.880;4.350;2024-03-25T04:45:30;36.30;;;11.50;;
21337;SDS011;72379;50.880;4.350;2024-03-25T04:47:55;35.33;;;11.93;;
21337;SDS011;72379;50.880;4.350;2024-03-25T04:50:21;38.67;;;13.27;;
21337;SDS011;72379;50.880;4.350;2024-03-25T04:52:47;29.30;;;11.73;;
21337;SDS011;72379;50.880;4.350;2024-03-25T04:55:14;33.73;;;11.80;;
21337;SDS011;72379;50.880;4.350;2024-03-25T04:57:40;35.70;;;12.87;;
21337;SDS011;72379;50.880;4.350;2024-03-25T05:00:05;35.20;;;12.77;;
21337;SDS011;72379;50.880;4.350;2024-03-25T05:02:32;40.07;;;12.57;;
21337;SDS011;72379;50.880;4.350;2024-03-25T05:04:57;37.93;;;12.57;;
21337;SDS011;72379;50.880;4.350;2024-03-25T05:07:23;44.77;;;12.03;;
21337;SDS011;72379;50.880;4.350;2024-03-25T05:09:49;39.47;;;11.63;;
21337;SDS011;72379;50.880;4.350;2024-03-25T05:12:14;40.33;;;12.00;;
21337;SDS011;72379;50.880;4.350;2024-03-25T05:14:40;41.20;;;12.77;;
21337;SDS011;72379;50.880;4.350;2024-03-25T05:17:06;38.37;;;11.43;;
21337;SDS011;72379;50.880;4.350;2024-03-25T05:19:34;37.90;;;12.50;;
21337;SDS011;72379;50.880;4.350;2024-03-25T05:22:00;41.20;;;12.50;;
21337;SDS011;72379;50.880;4.350;2024-03-25T05:24:25;43.27;;;12.73;;
21337;SDS011;72379;50.880;4.350;2024-03-25T05:26:53;34.37;;;11.67;;
21337;SDS011;72379;50.880;4.350;2024-03-25T05:29:19;38.63;;;12.67;;
21337;SDS011;72379;50.880;4.350;2024-03-25T05:31:57;36.90;;;12.53;;
21337;SDS011;72379;50.880;4.350;2024-03-25T05:34:24;41.27;;;13.03;;
21337;SDS011;72379;50.880;4.350;2024-03-25T05:36:51;33.63;;;13.00;;
21337;SDS011;72379;50.880;4.350;2024-03-25T05:39:16;38.67;;;13.37;;
21337;SDS011;72379;50.880;4.350;2024-03-25T05:41:43;36.40;;;13.53;;
21337;SDS011;72379;50.880;4.350;2024-03-25T05:44:08;41.97;;;13.83;;
21337;SDS011;72379;50.880;4.350;2024-03-25T05:46:34;39.27;;;13.60;;
21337;SDS011;72379;50.880;4.350;2024-03-25T05:49:03;42.53;;;13.30;;
21337;SDS011;72379;50.880;4.350;2024-03-25T05:51:31;34.43;;;13.37;;
21337;SDS011;72379;50.880;4.350;2024-03-25T05:54:00;36.50;;;13.73;;
21337;SDS011;72379;50.880;4.350;2024-03-25T05:56:26;36.33;;;12.97;;
21337;SDS011;72379;50.880;4.350;2024-03-25T05:58:58;59.90;;;15.83;;
21337;SDS011;72379;50.880;4.350;2024-03-25T06:01:25;43.03;;;15.47;;
21337;SDS011;72379;50.880;4.350;2024-03-25T06:03:51;49.40;;;15.13;;
21337;SDS011;72379;50.880;4.350;2024-03-25T06:06:17;42.03;;;13.93;;
21337;SDS011;72379;50.880;4.350;2024-03-25T06:08:43;38.30;;;13.37;;
21337;SDS011;72379;50.880;4.350;2024-03-25T06:11:10;42.83;;;13.03;;
21337;SDS011;72379;50.880;4.350;2024-03-25T06:13:36;39.83;;;13.73;;
21337;SDS011;72379;50.880;4.350;2024-03-25T06:16:02;49.00;;;14.57;;
21337;SDS011;72379;50.880;4.350;2024-03-25T06:18:28;54.20;;;14.60;;
21337;SDS011;72379;50.880;4.350;2024-03-25T06:20:54;45.37;;;14.47;;
21337;SDS011;72379;50.880;4.350;2024-03-25T06:25:52;38.37;;;15.03;;
21337;SDS011;72379;50.880;4.350;2024-03-25T06:28:19;46.03;;;13.50;;
21337;SDS011;72379;50.880;4.350;2024-03-25T06:30:45;40.87;;;11.87;;
21337;SDS011;72379;50.880;4.350;2024-03-25T06:33:32;44.77;;;12.77;;
21337;SDS011;72379;50.880;4.350;2024-03-25T06:36:17;42.73;;;12.97;;
21337;SDS011;72379;50.880;4.350;2024-03-25T06:38:43;41.37;;;14.10;;
21337;SDS011;72379;50.880;4.350;2024-03-25T06:41:09;36.67;;;12.40;;
21337;SDS011;72379;50.880;4.350;2024-03-25T06:43:35;41.47;;;14.50;;
21337;SDS011;72379;50.880;4.350;2024-03-25T06:46:03;46.37;;;14.17;;
21337;SDS011;72379;50.880;4.350;2024-03-25T06:48:29;36.70;;;12.83;;
21337;SDS011;72379;50.880;4.350;2024-03-25T06:50:55;33.90;;;12.57;;
21337;SDS011;72379;50.880;4.350;2024-03-25T06:53:22;42.23;;;12.87;;
21337;SDS011;72379;50.880;4.350;2024-03-25T06:55:51;37.13;;;12.20;;
21337;SDS011;72379;50.880;4.350;2024-03-25T06:58:18;34.27;;;11.70;;
21337;SDS011;72379;50.880;4.350;2024-03-25T07:00:44;40.37;;;12.07;;
21337;SDS011;72379;50.880;4.350;2024-03-25T07:03:10;34.57;;;12.23;;
21337;SDS011;72379;50.880;4.350;2024-03-25T07:05:36;42.30;;;12.13;;
21337;SDS011;72379;50.880;4.350;2024-03-25T07:08:03;37.00;;;12.30;;
21337;SDS011;72379;50.880;4.350;2024-03-25T07:10:30;40.13;;;11.53;;
21337;SDS011;72379;50.880;4.350;2024-03-25T07:12:56;40.03;;;12.73;;
21337;SDS011;72379;50.880;4.350;2024-03-25T07:15:22;36.43;;;10.87;;
21337;SDS011;72379;50.880;4.350;2024-03-25T07:17:48;38.13;;;10.57;;
21337;SDS011;72379;50.880;4.350;2024-03-25T07:20:14;28.30;;;11.17;;
21337;SDS011;72379;50.880;4.350;2024-03-25T07:22:40;29.20;;;11.27;;
21337;SDS011;72379;50.880;4.350;2024-03-25T07:25:06;33.80;;;10.30;;
21337;SDS011;72379;50.880;4.350;2024-03-25T07:27:32;32.63;;;10.47;;
21337;SDS011;72379;50.880;4.350;2024-03-25T07:29:57;30.50;;;10.30;;
21337;SDS011;72379;50.880;4.350;2024-03-25T07:32:24;28.37;;;10.17;;
21337;SDS011;72379;50.880;4.350;2024-03-25T07:34:50;25.97;;;9.70;;
21337;SDS011;72379;50.880;4.350;2024-03-25T07:37:16;34.47;;;9.87;;
21337;SDS011;72379;50.880;4.350;2024-03-25T07:39:42;34.63;;;9.00;;
21337;SDS011;72379;50.880;4.350;2024-03-25T07:42:10;36.30;;;9.13;;
21337;SDS011;72379;50.880;4.350;2024-03-25T07:44:36;31.00;;;8.50;;
21337;SDS011;72379;50.880;4.350;2024-03-25T07:47:02;28.17;;;9.67;;
21337;SDS011;72379;50.880;4.350;2024-03-25T07:49:28;22.77;;;8.80;;
21337;SDS011;72379;50.880;4.350;2024-03-25T07:51:54;29.10;;;8.63;;
21337;SDS011;72379;50.880;4.350;2024-03-25T07:54:20;28.97;;;8.97;;
21337;SDS011;72379;50.880;4.350;2024-03-25T07:56:45;30.73;;;10.07;;
21337;SDS011;72379;50.880;4.350;2024-03-25T07:59:12;27.47;;;8.40;;
21337;SDS011;72379;50.880;4.350;2024-03-25T08:01:38;28.13;;;9.37;;
21337;SDS011;72379;50.880;4.350;2024-03-25T08:04:04;21.93;;;8.93;;
21337;SDS011;72379;50.880;4.350;2024-03-25T08:06:30;26.10;;;9.97;;
21337;SDS011;72379;50.880;4.350;2024-03-25T08:08:55;22.13;;;7.90;;
21337;SDS011;72379;50.880;4.350;2024-03-25T08:11:21;23.53;;;7.17;;
21337;SDS011;72379;50.880;4.350;2024-03-25T08:13:48;21.13;;;8.43;;
21337;SDS011;72379;50.880;4.350;2024-03-25T08:16:14;32.00;;;9.20;;
21337;SDS011;72379;50.880;4.350;2024-03-25T08:18:40;22.97;;;8.27;;
21337;SDS011;72379;50.880;4.350;2024-03-25T08:21:06;29.57;;;8.10;;
21337;SDS011;72379;50.880;4.350;2024-03-25T08:23:32;19.47;;;8.30;;
21337;SDS011;72379;50.880;4.350;2024-03-25T08:25:57;25.50;;;8.03;;
21337;SDS011;72379;50.880;4.350;2024-03-25T08:28:25;28.90;;;9.33;;
21337;SDS011;72379;50.880;4.350;2024-03-25T08:30:53;26.30;;;8.97;;
21337;SDS011;72379;50.880;4.350;2024-03-25T08:33:20;22.43;;;8.40;;
21337;SDS011;72379;50.880;4.350;2024-03-25T08:35:46;27.17;;;8.80;;
21337;SDS011;72379;50.880;4.350;2024-03-25T08:38:12;27.70;;;9.90;;
21337;SDS011;72379;50.880;4.350;2024-03-25T08:40:38;31.97;;;9.40;;
21337;SDS011;72379;50.880;4.350;2024-03-25T08:43:05;32.87;;;8.60;;
21337;SDS011;72379;50.880;4.350;2024-03-25T08:45:31;25.00;;;7.87;;
21337;SDS011;72379;50.880;4.350;2024-03-25T08:47:57;26.80;;;8.77;;
21337;SDS011;72379;50.880;4.350;2024-03-25T08:50:23;25.93;;;7.60;;
21337;SDS011;72379;50.880;4.350;2024-03-25T08:52:50;22.90;;;8.30;;
21337;SDS011;72379;50.880;4.350;2024-03-25T08:55:16;21.77;;;7.60;;
21337;SDS011;72379;50.880;4.350;2024-03-25T08:57:41;21.67;;;8.37;;
21337;SDS011;72379;50.880;4.350;2024-03-25T09:00:07;21.43;;;8.70;;
21337;SDS011;72379;50.880;4.350;2024-03-25T09:02:38;29.80;;;9.37;;
21337;SDS011;72379;50.880;4.350;2024-03-25T09:05:04;29.13;;;9.50;;
21337;SDS011;72379;50.880;4.350;2024-03-25T09:07:36;24.73;;;9.13;;
21337;SDS011;72379;50.880;4.350;2024-03-25T09:10:02;19.10;;;7.93;;
21337;SDS011;72379;50.880;4.350;2024-03-25T09:12:46;25.67;;;8.93;;
21337;SDS011;72379;50.880;4.350;2024-03-25T09:15:13;24.40;;;9.10;;
21337;SDS011;72379;50.880;4.350;2024-03-25T09:17:39;25.90;;;9.03;;
21337;SDS011;72379;50.880;4.350;2024-03-25T09:20:05;18.60;;;7.80;;
21337;SDS011;72379;50.880;4.350;2024-03-25T09:22:46;22.27;;;7.60;;
21337;SDS011;72379;50.880;4.350;2024-03-25T09:25:13;23.83;;;7.80;;
21337;SDS011;72379;50.880;4.350;2024-03-25T09:27:40;23.07;;;9.27;;
21337;SDS011;72379;50.880;4.350;2024-03-25T09:30:07;20.67;;;7.60;;
21337;SDS011;72379;50.880;4.350;2024-03-25T09:32:34;27.73;;;8.30;;
21337;SDS011;72379;50.880;4.350;2024-03-25T09:35:00;24.93;;;8.63;;
21337;SDS011;72379;50.880;4.350;2024-03-25T09:37:26;18.60;;;7.43;;
21337;SDS011;72379;50.880;4.350;2024-03-25T09:39:52;16.10;;;6.10;;
21337;SDS011;72379;50.880;4.350;2024-03-25T09:42:39;25.10;;;8.50;;
21337;SDS011;72379;50.880;4.350;2024-03-25T09:45:06;15.90;;;7.00;;
21337;SDS011;72379;50.880;4.350;2024-03-25T09:47:33;24.57;;;7.20;;
21337;SDS011;72379;50.880;4.350;2024-03-25T09:49:59;20.67;;;7.60;;
21337;SDS011;72379;50.880;4.350;2024-03-25T09:52:29;17.70;;;6.90;;
21337;SDS011;72379;50.880;4.350;2024-03-25T09:54:55;23.10;;;6.33;;
21337;SDS011;72379;50.880;4.350;2024-03-25T09:57:21;18.53;;;7.07;;
21337;SDS011;72379;50.880;4.350;2024-03-25T09:59:47;16.80;;;7.07;;
21337;SDS011;72379;50.880;4.350;2024-03-25T10:02:13;18.57;;;6.97;;
21337;SDS011;72379;50.880;4.350;2024-03-25T10:04:43;15.37;;;7.13;;
21337;SDS011;72379;50.880;4.350;2024-03-25T10:07:11;17.60;;;7.00;;
21337;SDS011;72379;50.880;4.350;2024-03-25T10:09:46;17.67;;;7.20;;
21337;SDS011;72379;50.880;4.350;2024-03-25T10:12:12;12.83;;;4.53;;
21337;SDS011;72379;50.880;4.350;2024-03-25T10:14:39;15.83;;;6.60;;
21337;SDS011;72379;50.880;4.350;2024-03-25T10:17:07;16.23;;;6.47;;
21337;SDS011;72379;50.880;4.350;2024-03-25T10:19:33;11.83;;;5.13;;
21337;SDS011;72379;50.880;4.350;2024-03-25T10:22:11;16.77;;;6.30;;
21337;SDS011;72379;50.880;4.350;2024-03-25T10:27:03;18.47;;;6.67;;
21337;SDS011;72379;50.880;4.350;2024-03-25T10:29:30;17.53;;;7.43;;
21337;SDS011;72379;50.880;4.350;2024-03-25T10:31:59;14.27;;;7.77;;
21337;SDS011;72379;50.880;4.350;2024-03-25T10:34:25;14.37;;;6.23;;
21337;SDS011;72379;50.880;4.350;2024-03-25T10:36:52;15.07;;;6.27;;
21337;SDS011;72379;50.880;4.350;2024-03-25T10:39:26;12.13;;;3.80;;
21337;SDS011;72379;50.880;4.350;2024-03-25T10:41:56;15.40;;;5.30;;
21337;SDS011;72379;50.880;4.350;2024-03-25T10:44:26;9.17;;;4.10;;
21337;SDS011;72379;50.880;4.350;2024-03-25T10:46:59;8.20;;;4.30;;
21337;SDS011;72379;50.880;4.350;2024-03-25T10:49:40;9.30;;;3.10;;
21337;SDS011;72379;50.880;4.350;2024-03-25T10:52:19;8.70;;;3.77;;
21337;SDS011;72379;50.880;4.350;2024-03-25T10:54:46;10.07;;;3.77;;
21337;SDS011;72379;50.880;4.350;2024-03-25T10:57:12;7.43;;;4.20;;
21337;SDS011;72379;50.880;4.350;2024-03-25T10:59:39;10.70;;;4.13;;
21337;SDS011;72379;50.880;4.350;2024-03-25T11:02:08;8.13;;;3.07;;
21337;SDS011;72379;50.880;4.350;2024-03-25T11:04:38;5.23;;;2.77;;
21337;SDS011;72379;50.880;4.350;2024-03-25T11:09:40;6.47;;;3.33;;
21337;SDS011;72379;50.880;4.350;2024-03-25T11:12:10;10.20;;;3.70;;
21337;SDS011;72379;50.880;4.350;2024-03-25T11:14:37;6.00;;;2.70;;
21337;SDS011;72379;50.880;4.350;2024-03-25T11:17:13;10.37;;;3.53;;
21337;SDS011;72379;50.880;4.350;2024-03-25T11:19:40;5.90;;;3.10;;
21337;SDS011;72379;50.880;4.350;2024-03-25T11:22:10;10.90;;;3.17;;
21337;SDS011;72379;50.880;4.350;2024-03-25T11:24:36;8.03;;;3.07;;
21337;SDS011;72379;50.880;4.350;2024-03-25T11:27:05;16.60;;;6.23;;
21337;SDS011;72379;50.880;4.350;2024-03-25T11:29:32;8.13;;;3.37;;
21337;SDS011;72379;50.880;4.350;2024-03-25T11:31:59;9.10;;;2.70;;
21337;SDS011;72379;50.880;4.350;2024-03-25T11:34:29;8.40;;;4.37;;
21337;SDS011;72379;50.880;4.350;2024-03-25T11:36:55;7.23;;;2.60;;
21337;SDS011;72379;50.880;4.350;2024-03-25T11:39:22;7.20;;;2.87;;
21337;SDS011;72379;50.880;4.350;2024-03-25T11:41:49;8.90;;;3.13;;
21337;SDS011;72379;50.880;4.350;2024-03-25T11:44:15;9.93;;;2.80;;
21337;SDS011;72379;50.880;4.350;2024-03-25T11:46:45;5.93;;;2.73;;
21337;SDS011;72379;50.880;4.350;2024-03-25T11:49:14;6.87;;;2.80;;
21337;SDS011;72379;50.880;4.350;2024-03-25T11:51:43;6.07;;;2.47;;
21337;SDS011;72379;50.880;4.350;2024-03-25T11:54:11;8.27;;;3.23;;
21337;SDS011;72379;50.880;4.350;2024-03-25T11:56:37;10.60;;;3.43;;
21337;SDS011;72379;50.880;4.350;2024-03-25T11:59:04;4.70;;;2.77;;
21337;SDS011;72379;50.880;4.350;2024-03-25T12:01:30;11.00;;;3.27;;
21337;SDS011;72379;50.880;4.350;2024-03-25T12:03:56;8.87;;;2.60;;
21337;SDS011;72379;50.880;4.350;2024-03-25T12:06:22;10.10;;;4.73;;
21337;SDS011;72379;50.880;4.350;2024-03-25T12:08:48;5.53;;;2.67;;
21337;SDS011;72379;50.880;4.350;2024-03-25T12:11:32;8.57;;;2.80;;
21337;SDS011;72379;50.880;4.350;2024-03-25T12:13:58;4.97;;;2.23;;
21337;SDS011;72379;50.880;4.350;2024-03-25T12:16:25;7.47;;;3.10;;
21337;SDS011;72379;50.880;4.350;2024-03-25T12:18:52;6.53;;;2.70;;
21337;SDS011;72379;50.880;4.350;2024-03-25T12:21:19;8.90;;;3.73;;
21337;SDS011;72379;50.880;4.350;2024-03-25T12:23:45;8.83;;;3.13;;
21337;SDS011;72379;50.880;4.350;2024-03-25T12:26:12;8.90;;;3.27;;
21337;SDS011;72379;50.880;4.350;2024-03-25T12:28:39;7.97;;;3.10;;
21337;SDS011;72379;50.880;4.350;2024-03-25T12:31:08;9.47;;;3.43;;
21337;SDS011;72379;50.880;4.350;2024-03-25T12:33:41;7.00;;;2.93;;
21337;SDS011;72379;50.880;4.350;2024-03-25T12:36:07;6.63;;;3.03;;
21337;SDS011;72379;50.880;4.350;2024-03-25T12:38:33;8.17;;;3.53;;
21337;SDS011;72379;50.880;4.350;2024-03-25T12:41:11;6.73;;;2.80;;
21337;SDS011;72379;50.880;4.350;2024-03-25T12:43:44;6.97;;;2.93;;
21337;SDS011;72379;50.880;4.350;2024-03-25T12:46:10;9.90;;;3.30;;
21337;SDS011;72379;50.880;4.350;2024-03-25T12:48:37;3.90;;;2.33;;
21337;SDS011;72379;50.880;4.350;2024-03-25T12:51:04;5.13;;;2.80;;
21337;SDS011;72379;50.880;4.350;2024-03-25T12:53:30;6.60;;;3.00;;
21337;SDS011;72379;50.880;4.350;2024-03-25T12:55:56;4.10;;;2.40;;
21337;SDS011;72379;50.880;4.350;2024-03-25T12:58:22;9.13;;;3.13;;
21337;SDS011;72379;50.880;4.350;2024-03-25T13:00:47;6.80;;;2.70;;
21337;SDS011;72379;50.880;4.350;2024-03-25T13:03:13;6.43;;;2.70;;
21337;SDS011;72379;50.880;4.350;2024-03-25T13:05:40;10.10;;;2.90;;
21337;SDS011;72379;50.880;4.350;2024-03-25T13:08:08;6.00;;;2.93;;
21337;SDS011;72379;50.880;4.350;2024-03-25T13:10:33;4.23;;;2.80;;
21337;SDS011;72379;50.880;4.350;2024-03-25T13:13:00;7.30;;;2.80;;
21337;SDS011;72379;50.880;4.350;2024-03-25T13:15:27;5.47;;;2.47;;
21337;SDS011;72379;50.880;4.350;2024-03-25T13:17:53;3.73;;;2.30;;
21337;SDS011;72379;50.880;4.350;2024-03-25T13:20:19;3.30;;;2.30;;
21337;SDS011;72379;50.880;4.350;2024-03-25T13:22:45;4.83;;;2.20;;
21337;SDS011;72379;50.880;4.350;2024-03-25T13:25:12;5.80;;;2.57;;
21337;SDS011;72379;50.880;4.350;2024-03-25T13:27:38;6.23;;;2.00;;
21337;SDS011;72379;50.880;4.350;2024-03-25T13:30:05;4.07;;;2.00;;
21337;SDS011;72379;50.880;4.350;2024-03-25T13:32:31;3.13;;;1.83;;
21337;SDS011;72379;50.880;4.350;2024-03-25T13:34:58;4.17;;;2.20;;
21337;SDS011;72379;50.880;4.350;2024-03-25T13:37:24;3.80;;;2.23;;
21337;SDS011;72379;50.880;4.350;2024-03-25T13:39:50;4.30;;;1.90;;
21337;SDS011;72379;50.880;4.350;2024-03-25T13:42:16;4.23;;;1.90;;
21337;SDS011;72379;50.880;4.350;2024-03-25T13:44:42;2.73;;;1.90;;
21337;SDS011;72379;50.880;4.350;2024-03-25T13:47:08;5.23;;;1.80;;
21337;SDS011;72379;50.880;4.350;2024-03-25T13:49:34;1.57;;;1.37;;
21337;SDS011;72379;50.880;4.350;2024-03-25T13:51:59;7.73;;;2.23;;
21337;SDS011;72379;50.880;4.350;2024-03-25T13:54:28;3.27;;;1.73;;
21337;SDS011;72379;50.880;4.350;2024-03-25T13:56:55;5.33;;;2.27;;
21337;SDS011;72379;50.880;4.350;2024-03-25T13:59:24;5.63;;;2.17;;
21337;SDS011;72379;50.880;4.350;2024-03-25T14:01:50;4.93;;;2.30;;
21337;SDS011;72379;50.880;4.350;2024-03-25T14:04:17;3.57;;;1.67;;
21337;SDS011;72379;50.880;4.350;2024-03-25T14:06:43;5.23;;;1.90;;
21337;SDS011;72379;50.880;4.350;2024-03-25T14:09:10;12.80;;;4.33;;
21337;SDS011;72379;50.880;4.350;2024-03-25T14:11:49;8.20;;;2.47;;
21337;SDS011;72379;50.880;4.350;2024-03-25T14:14:15;3.87;;;2.03;;
21337;SDS011;72379;50.880;4.350;2024-03-25T14:16:41;7.47;;;2.27;;
21337;SDS011;72379;50.880;4.350;2024-03-25T14:19:07;7.97;;;2.10;;
21337;SDS011;72379;50.880;4.350;2024-03-25T14:21:32;5.83;;;2.30;;
21337;SDS011;72379;50.880;4.350;2024-03-25T14:23:58;6.22;;;2.38;;
21337;SDS011;72379;50.880;4.350;2024-03-25T14:26:24;5.07;;;2.03;;
21337;SDS011;72379;50.880;4.350;2024-03-25T14:28:50;7.77;;;2.20;;
21337;SDS011;72379;50.880;4.350;2024-03-25T14:31:15;8.03;;;3.90;;
21337;SDS011;72379;50.880;4.350;2024-03-25T14:33:41;4.15;;;1.90;;
21337;SDS011;72379;50.880;4.350;2024-03-25T14:36:07;4.73;;;2.00;;
21337;SDS011;72379;50.880;4.350;2024-03-25T14:38:32;6.50;;;1.80;;
21337;SDS011;72379;50.880;4.350;2024-03-25T14:40:59;7.10;;;2.00;;
21337;SDS011;72379;50.880;4.350;2024-03-25T14:43:25;9.18;;;2.10;;
21337;SDS011;72379;50.880;4.350;2024-03-25T14:45:57;3.67;;;2.15;;